createdAt,value
2023-05-19T00:00:32.146Z,61.17
2023-05-19T00:01:32.081Z,62.70
2023-05-19T00:02:32.124Z,62.27
2023-05-19T00:03:32.241Z,62.80
2023-05-19T00:04:32.171Z,62.21
2023-05-19T00:05:32.194Z,61.16
2023-05-19T00:06:32.271Z,62.15
2023-05-19T00:07:32.289Z,62.71
2023-05-19T00:08:32.365Z,62.22
2023-05-19T00:09:32.379Z,61.31
2023-05-19T00:10:32.683Z,61.38
2023-05-19T00:11:32.470Z,61.37
2023-05-19T00:12:32.504Z,62.79
2023-05-19T00:13:32.508Z,61.20
2023-05-19T00:14:32.571Z,61.47
2023-05-19T00:15:32.655Z,59.49
2023-05-19T00:16:32.710Z,62.20
2023-05-19T00:17:32.708Z,61.74
2023-05-19T00:18:32.771Z,61.60
2023-05-19T00:19:32.816Z,61.26
2023-05-19T00:20:33.057Z,62.85
2023-05-19T00:21:32.897Z,61.15
2023-05-19T00:22:32.917Z,62.22
2023-05-19T00:23:32.926Z,63.31
2023-05-19T00:24:32.988Z,60.77
2023-05-19T00:25:33.029Z,61.25
2023-05-19T00:26:33.125Z,61.05
2023-05-19T00:27:33.119Z,62.47
2023-05-19T00:28:33.180Z,61.44
2023-05-19T00:29:33.224Z,62.18
2023-05-19T00:30:33.447Z,61.68
2023-05-19T00:31:33.318Z,60.79
2023-05-19T00:32:33.324Z,61.29
2023-05-19T00:33:33.322Z,61.15
2023-05-19T00:34:33.382Z,61.66
2023-05-19T00:35:33.396Z,60.77
2023-05-19T00:36:33.417Z,61.35
2023-05-19T00:37:33.426Z,61.88
2023-05-19T00:38:33.441Z,60.99
2023-05-19T00:39:33.449Z,61.47
2023-05-19T00:40:33.892Z,62.02
2023-05-19T00:41:33.540Z,62.27
2023-05-19T00:42:33.579Z,61.55
2023-05-19T00:43:33.614Z,63.43
2023-05-19T00:44:33.599Z,62.57
2023-05-19T00:45:33.651Z,61.95
2023-05-19T00:46:33.660Z,61.67
2023-05-19T00:47:33.706Z,59.42
2023-05-19T00:48:33.714Z,61.08
2023-05-19T00:49:33.751Z,62.53
2023-05-19T00:50:33.968Z,62.22
2023-05-19T00:51:33.847Z,62.17
2023-05-19T00:52:33.834Z,60.94
2023-05-19T00:53:33.920Z,61.74
2023-05-19T00:54:33.963Z,63.27
2023-05-19T00:55:33.990Z,61.13
2023-05-19T00:56:34.037Z,61.53
2023-05-19T00:57:34.060Z,61.21
2023-05-19T00:58:34.097Z,61.65
2023-05-19T00:59:34.162Z,60.61
2023-05-19T01:00:34.576Z,60.17
2023-05-19T01:01:34.331Z,60.83
2023-05-19T01:02:34.366Z,61.52
2023-05-19T01:03:34.463Z,61.14
2023-05-19T01:04:34.356Z,61.23
2023-05-19T01:05:34.374Z,62.12
2023-05-19T01:06:34.452Z,61.45
2023-05-19T01:07:34.497Z,60.37
2023-05-19T01:08:34.514Z,61.76
2023-05-19T01:09:34.551Z,61.65
2023-05-19T01:10:34.653Z,60.99
2023-05-19T01:11:34.658Z,61.30
2023-05-19T01:12:34.691Z,62.87
2023-05-19T01:13:34.780Z,61.76
2023-05-19T01:14:34.794Z,61.47
2023-05-19T01:15:34.831Z,61.78
2023-05-19T01:16:34.970Z,62.70
2023-05-19T01:17:34.959Z,61.03
2023-05-19T01:18:34.970Z,60.92
2023-05-19T01:19:35.008Z,61.77
2023-05-19T01:20:35.049Z,61.48
2023-05-19T01:21:35.103Z,61.83
2023-05-19T01:22:35.132Z,63.19
2023-05-19T01:23:35.152Z,62.03
2023-05-19T01:24:35.208Z,60.03
2023-05-19T01:25:35.253Z,62.25
2023-05-19T01:26:35.318Z,60.64
2023-05-19T01:27:35.366Z,62.67
2023-05-19T01:28:35.404Z,62.07
2023-05-19T01:29:35.444Z,61.86
2023-05-19T01:30:35.605Z,61.60
2023-05-19T01:31:35.560Z,61.47
2023-05-19T01:32:35.632Z,60.04
2023-05-19T01:33:35.617Z,59.86
2023-05-19T01:34:35.662Z,60.46
2023-05-19T01:35:35.682Z,61.86
2023-05-19T01:36:35.779Z,60.90
2023-05-19T01:37:35.805Z,61.46
2023-05-19T01:38:35.824Z,62.56
2023-05-19T01:39:35.873Z,61.60
2023-05-19T01:40:35.917Z,62.21
2023-05-19T01:41:36.000Z,60.32
2023-05-19T01:42:36.014Z,62.03
2023-05-19T01:43:36.047Z,61.60
2023-05-19T01:44:36.061Z,60.37
2023-05-19T01:45:36.164Z,61.13
2023-05-19T01:46:36.275Z,60.52
2023-05-19T01:47:36.282Z,59.58
2023-05-19T01:48:36.287Z,61.22
2023-05-19T01:49:36.319Z,60.63
2023-05-19T01:50:36.347Z,60.83
2023-05-19T01:51:36.412Z,61.37
2023-05-19T01:52:36.502Z,60.56
2023-05-19T01:53:36.532Z,60.84
2023-05-19T01:54:36.578Z,61.12
2023-05-19T01:55:36.629Z,61.55
2023-05-19T01:56:36.646Z,62.61
2023-05-19T01:57:36.736Z,60.90
2023-05-19T01:58:36.746Z,61.69
2023-05-19T01:59:36.819Z,61.38
2023-05-19T02:00:36.871Z,59.97
2023-05-19T02:01:36.907Z,61.39
2023-05-19T02:02:37.010Z,60.92
2023-05-19T02:03:37.005Z,60.66
2023-05-19T02:04:37.059Z,61.20
2023-05-19T02:05:37.083Z,60.36
2023-05-19T02:06:37.151Z,59.73
2023-05-19T02:07:37.181Z,61.51
2023-05-19T02:08:37.210Z,61.03
2023-05-19T02:09:37.246Z,61.09
2023-05-19T02:10:37.314Z,59.70
2023-05-19T02:11:37.336Z,58.94
2023-05-19T02:12:38.199Z,59.98
2023-05-19T02:13:37.458Z,59.59
2023-05-19T02:14:37.478Z,60.96
2023-05-19T02:15:37.544Z,60.57
2023-05-19T02:16:37.591Z,60.87
2023-05-19T02:17:37.678Z,58.38
2023-05-19T02:18:37.699Z,59.30
2023-05-19T02:19:37.744Z,60.11
2023-05-19T02:20:37.800Z,60.21
2023-05-19T02:21:37.839Z,59.65
2023-05-19T02:22:37.867Z,61.24
2023-05-19T02:23:37.917Z,61.54
2023-05-19T02:24:37.954Z,59.96
2023-05-19T02:25:38.025Z,60.08
2023-05-19T02:26:38.070Z,61.34
2023-05-19T02:27:38.108Z,59.72
2023-05-19T02:28:38.166Z,60.79
2023-05-19T02:29:38.204Z,58.97
2023-05-19T02:30:38.268Z,59.83
2023-05-19T02:31:38.385Z,60.58
2023-05-19T02:32:38.410Z,60.84
2023-05-19T02:33:38.418Z,60.29
2023-05-19T02:34:38.496Z,59.67
2023-05-19T02:35:38.529Z,59.89
2023-05-19T02:36:38.583Z,60.25
2023-05-19T02:37:38.592Z,59.54
2023-05-19T02:38:38.669Z,60.05
2023-05-19T02:39:38.705Z,59.81
2023-05-19T02:40:38.745Z,60.10
2023-05-19T02:41:38.830Z,59.26
2023-05-19T02:42:38.833Z,60.52
2023-05-19T02:43:38.881Z,61.53
2023-05-19T02:44:38.947Z,61.38
2023-05-19T02:45:38.980Z,59.59
2023-05-19T02:46:39.174Z,59.22
2023-05-19T02:47:39.121Z,59.74
2023-05-19T02:48:39.117Z,60.22
2023-05-19T02:49:39.216Z,57.50
2023-05-19T02:50:39.269Z,60.17
2023-05-19T02:51:39.293Z,61.42
2023-05-19T02:52:39.346Z,59.49
2023-05-19T02:53:39.395Z,60.49
2023-05-19T02:54:39.446Z,62.34
2023-05-19T02:55:39.518Z,59.32
2023-05-19T02:56:39.585Z,59.18
2023-05-19T02:57:39.590Z,60.49
2023-05-19T02:58:39.688Z,59.74
2023-05-19T02:59:39.705Z,60.49
2023-05-19T03:00:39.760Z,60.05
2023-05-19T03:01:39.869Z,58.19
2023-05-19T03:02:39.973Z,59.23
2023-05-19T03:03:39.995Z,60.41
2023-05-19T03:04:39.977Z,59.28
2023-05-19T03:05:40.049Z,60.22
2023-05-19T03:06:40.105Z,61.04
2023-05-19T03:07:40.173Z,59.41
2023-05-19T03:08:42.302Z,58.62
2023-05-19T03:09:40.261Z,59.45
2023-05-19T03:10:40.306Z,59.39
2023-05-19T03:11:40.349Z,61.57
2023-05-19T03:12:40.390Z,59.27
2023-05-19T03:13:40.479Z,58.63
2023-05-19T03:14:40.521Z,59.84
2023-05-19T03:15:40.576Z,59.17
2023-05-19T03:16:40.774Z,59.13
2023-05-19T03:17:40.810Z,59.99
2023-05-19T03:18:40.738Z,58.69
2023-05-19T03:19:40.801Z,58.36
2023-05-19T03:20:41.744Z,59.41
2023-05-19T03:21:40.924Z,58.69
2023-05-19T03:22:40.976Z,60.91
2023-05-19T03:23:41.041Z,59.30
2023-05-19T03:24:41.087Z,59.85
2023-05-19T03:25:41.170Z,60.43
2023-05-19T03:26:41.218Z,58.58
2023-05-19T03:27:41.293Z,59.82
2023-05-19T03:28:41.332Z,60.66
2023-05-19T03:29:41.366Z,59.91
2023-05-19T03:30:41.488Z,58.01
2023-05-19T03:31:41.501Z,60.31
2023-05-19T03:32:41.693Z,58.98
2023-05-19T03:33:41.643Z,59.84
2023-05-19T03:34:41.668Z,59.55
2023-05-19T03:35:41.698Z,57.92
2023-05-19T03:36:41.774Z,59.22
2023-05-19T03:37:41.863Z,60.16
2023-05-19T03:38:41.887Z,57.47
2023-05-19T03:39:41.943Z,57.89
2023-05-19T03:40:41.989Z,59.05
2023-05-19T03:41:42.105Z,59.49
2023-05-19T03:42:42.122Z,58.86
2023-05-19T03:43:42.150Z,59.79
2023-05-19T03:44:42.227Z,57.97
2023-05-19T03:45:42.323Z,57.49
2023-05-19T03:46:42.374Z,57.82
2023-05-19T03:47:42.541Z,59.57
2023-05-19T03:48:42.497Z,57.70
2023-05-19T03:49:42.521Z,59.47
2023-05-19T03:50:42.602Z,59.12
2023-05-19T03:51:42.674Z,59.06
2023-05-19T03:52:42.719Z,58.50
2023-05-19T03:53:42.763Z,59.21
2023-05-19T03:54:42.840Z,58.26
2023-05-19T03:55:42.905Z,58.59
2023-05-19T03:56:42.949Z,58.70
2023-05-19T03:57:43.008Z,59.42
2023-05-19T03:58:43.076Z,58.12
2023-05-19T03:59:43.127Z,59.69
2023-05-19T04:00:43.259Z,57.31
2023-05-19T04:01:43.257Z,58.30
2023-05-19T04:02:43.405Z,57.93
2023-05-19T04:03:43.458Z,58.89
2023-05-19T04:04:43.433Z,59.22
2023-05-19T04:05:43.500Z,59.05
2023-05-19T04:06:43.558Z,59.10
2023-05-19T04:07:44.249Z,59.59
2023-05-19T04:08:43.666Z,58.80
2023-05-19T04:09:43.691Z,58.43
2023-05-19T04:10:43.767Z,59.44
2023-05-19T04:11:43.825Z,59.20
2023-05-19T04:12:43.884Z,58.43
2023-05-19T04:13:45.175Z,59.87
2023-05-19T04:14:43.997Z,60.82
2023-05-19T04:15:44.088Z,57.28
2023-05-19T04:16:44.126Z,58.65
2023-05-19T04:17:44.224Z,58.53
2023-05-19T04:18:44.254Z,59.55
2023-05-19T04:19:44.330Z,57.94
2023-05-19T04:20:44.357Z,58.53
2023-05-19T04:21:44.403Z,57.39
2023-05-19T04:22:44.449Z,57.92
2023-05-19T04:23:44.470Z,59.10
2023-05-19T04:24:44.540Z,58.49
2023-05-19T04:25:44.635Z,57.62
2023-05-19T04:26:44.652Z,58.09
2023-05-19T04:27:44.738Z,55.87
2023-05-19T04:28:44.813Z,57.73
2023-05-19T04:29:44.859Z,57.31
2023-05-19T04:30:44.927Z,58.05
2023-05-19T04:31:45.083Z,56.08
2023-05-19T04:32:45.116Z,58.25
2023-05-19T04:33:45.082Z,58.30
2023-05-19T04:34:45.284Z,57.46
2023-05-19T04:35:45.195Z,58.56
2023-05-19T04:36:45.270Z,57.08
2023-05-19T04:37:45.313Z,56.38
2023-05-19T04:38:45.380Z,57.93
2023-05-19T04:39:45.470Z,55.75
2023-05-19T04:40:45.475Z,58.03
2023-05-19T04:41:45.565Z,57.62
2023-05-19T04:42:45.577Z,56.54
2023-05-19T04:43:45.643Z,56.04
2023-05-19T04:44:45.707Z,55.78
2023-05-19T04:45:45.755Z,57.37
2023-05-19T04:46:45.857Z,56.84
2023-05-19T04:47:45.900Z,57.61
2023-05-19T04:48:45.958Z,55.81
2023-05-19T04:49:46.015Z,56.31
2023-05-19T04:50:46.036Z,56.79
2023-05-19T04:51:46.101Z,56.02
2023-05-19T04:52:46.128Z,57.51
2023-05-19T04:53:46.200Z,57.17
2023-05-19T04:54:46.253Z,56.43
2023-05-19T04:55:46.320Z,56.16
2023-05-19T04:56:46.389Z,56.60
2023-05-19T04:57:46.409Z,56.96
2023-05-19T04:58:46.444Z,56.19
2023-05-19T04:59:46.491Z,56.13
2023-05-19T05:00:46.550Z,56.35
2023-05-19T05:01:46.638Z,55.88
2023-05-19T05:02:46.742Z,57.43
2023-05-19T05:03:46.735Z,55.76
2023-05-19T05:04:46.775Z,55.69
2023-05-19T05:05:46.792Z,56.48
2023-05-19T05:06:46.904Z,55.68
2023-05-19T05:07:46.932Z,54.93
2023-05-19T05:08:46.966Z,57.13
2023-05-19T05:09:47.030Z,55.19
2023-05-19T05:10:47.086Z,54.70
2023-05-19T05:11:47.162Z,54.93
2023-05-19T05:12:47.205Z,55.28
2023-05-19T05:13:47.269Z,57.04
2023-05-19T05:14:47.315Z,56.47
2023-05-19T05:15:47.347Z,55.91
2023-05-19T05:16:47.498Z,56.21
2023-05-19T05:17:47.475Z,54.36
2023-05-19T05:18:47.527Z,55.00
2023-05-19T05:19:47.558Z,55.15
2023-05-19T05:20:47.617Z,55.07
2023-05-19T05:21:47.641Z,54.16
2023-05-19T05:22:47.700Z,55.35
2023-05-19T05:23:47.735Z,55.09
2023-05-19T05:24:47.796Z,55.30
2023-05-19T05:25:47.859Z,55.03
2023-05-19T05:26:47.916Z,54.07
2023-05-19T05:27:47.961Z,54.03
2023-05-19T05:28:48.028Z,55.29
2023-05-19T05:29:48.048Z,54.92
2023-05-19T05:30:48.125Z,56.06
2023-05-19T05:31:48.140Z,54.50
2023-05-19T05:32:48.358Z,55.05
2023-05-19T05:33:48.287Z,53.90
2023-05-19T05:34:48.291Z,54.13
2023-05-19T05:35:48.328Z,54.51
2023-05-19T05:36:48.417Z,53.14
2023-05-19T05:37:48.456Z,54.10
2023-05-19T05:38:48.490Z,52.91
2023-05-19T05:39:48.537Z,56.21
2023-05-19T05:40:48.582Z,53.19
2023-05-19T05:41:48.669Z,54.44
2023-05-19T05:42:49.261Z,54.47
2023-05-19T05:43:48.717Z,52.50
2023-05-19T05:44:48.808Z,54.14
2023-05-19T05:45:48.890Z,53.65
2023-05-19T05:46:48.921Z,54.47
2023-05-19T05:47:49.001Z,54.49
2023-05-19T05:48:49.008Z,53.48
2023-05-19T05:49:49.291Z,53.17
2023-05-19T05:50:49.108Z,54.52
2023-05-19T05:52:01.954Z,53.57
2023-05-19T05:52:50.155Z,53.68
2023-05-19T05:53:49.149Z,53.68
2023-05-19T05:54:49.120Z,54.16
2023-05-19T05:55:49.133Z,54.03
2023-05-19T05:56:49.114Z,52.70
2023-05-19T05:57:49.100Z,52.94
2023-05-19T05:58:49.093Z,52.19
2023-05-19T05:59:49.101Z,55.91
2023-05-19T06:00:49.077Z,53.80
2023-05-19T06:01:49.096Z,52.40
2023-05-19T06:02:49.150Z,53.11
2023-05-19T06:03:49.114Z,53.29
2023-05-19T06:04:49.178Z,53.11
2023-05-19T06:05:49.232Z,53.79
2023-05-19T06:06:49.278Z,54.29
2023-05-19T06:07:49.333Z,52.48
2023-05-19T06:08:49.351Z,53.03
2023-05-19T06:09:49.406Z,52.27
2023-05-19T06:10:49.431Z,52.64
2023-05-19T06:11:49.460Z,53.10
2023-05-19T06:12:49.548Z,54.07
2023-05-19T06:13:49.588Z,51.99
2023-05-19T06:14:49.623Z,53.52
2023-05-19T06:15:49.688Z,52.35
2023-05-19T06:16:49.708Z,51.59
2023-05-19T06:17:49.805Z,53.28
2023-05-19T06:18:49.811Z,53.80
2023-05-19T06:19:49.793Z,52.36
2023-05-19T06:20:49.832Z,53.05
2023-05-19T06:21:49.886Z,51.27
2023-05-19T06:22:49.917Z,51.42
2023-05-19T06:23:49.956Z,50.95
2023-05-19T06:24:50.000Z,51.17
2023-05-19T06:25:50.089Z,51.89
2023-05-19T06:26:50.132Z,51.29
2023-05-19T06:27:50.093Z,51.44
2023-05-19T06:28:50.126Z,51.99
2023-05-19T06:29:50.204Z,52.31
2023-05-19T06:30:50.192Z,52.09
2023-05-19T06:31:50.330Z,51.70
2023-05-19T06:32:50.342Z,51.99
2023-05-19T06:33:50.299Z,52.65
2023-05-19T06:34:50.352Z,51.73
2023-05-19T06:35:50.367Z,51.86
2023-05-19T06:36:50.440Z,51.03
2023-05-19T06:37:50.443Z,50.23
2023-05-19T06:38:50.471Z,52.28
2023-05-19T06:39:50.485Z,52.71
2023-05-19T06:40:50.520Z,52.32
2023-05-19T06:41:50.573Z,51.10
2023-05-19T06:42:50.732Z,51.98
2023-05-19T06:43:50.626Z,51.32
2023-05-19T06:44:50.663Z,52.89
2023-05-19T06:45:50.705Z,50.96
2023-05-19T06:46:50.774Z,52.87
2023-05-19T06:47:50.845Z,54.08
2023-05-19T06:48:50.815Z,52.14
2023-05-19T06:49:50.903Z,51.21
2023-05-19T06:50:50.849Z,52.04
2023-05-19T06:51:50.930Z,54.06
2023-05-19T06:52:50.977Z,51.53
2023-05-19T06:53:50.969Z,52.48
2023-05-19T06:54:51.009Z,51.14
2023-05-19T06:55:58.619Z,52.52
2023-05-19T06:56:52.017Z,52.64
2023-05-19T06:57:51.018Z,49.84
2023-05-19T06:58:51.076Z,52.53
2023-05-19T06:59:51.036Z,51.10
2023-05-19T07:00:51.019Z,52.14
2023-05-19T07:01:51.069Z,53.15
2023-05-19T07:02:51.319Z,52.87
2023-05-19T07:03:51.080Z,51.17
2023-05-19T07:04:50.963Z,52.36
2023-05-19T07:05:50.996Z,51.89
2023-05-19T07:06:50.960Z,52.86
2023-05-19T07:07:50.952Z,53.26
2023-05-19T07:08:50.935Z,52.53
2023-05-19T07:09:50.986Z,52.59
2023-05-19T07:10:50.946Z,50.39
2023-05-19T07:11:50.940Z,52.52
2023-05-19T07:12:50.991Z,52.96
2023-05-19T07:13:50.999Z,52.94
2023-05-19T07:14:51.027Z,53.49
2023-05-19T07:15:51.079Z,52.77
2023-05-19T07:16:51.185Z,52.65
2023-05-19T07:17:51.128Z,52.52
2023-05-19T07:18:51.191Z,52.64
2023-05-19T07:19:51.156Z,53.45
2023-05-19T07:20:51.156Z,53.46
2023-05-19T07:21:51.200Z,53.53
2023-05-19T07:22:51.178Z,53.18
2023-05-19T07:23:51.170Z,52.30
2023-05-19T07:24:51.195Z,54.02
2023-05-19T07:25:51.202Z,52.83
2023-05-19T07:26:51.204Z,53.79
2023-05-19T07:27:51.176Z,52.09
2023-05-19T07:28:51.222Z,51.23
2023-05-19T07:29:51.229Z,52.38
2023-05-19T07:30:51.231Z,52.54
2023-05-19T07:31:51.286Z,51.10
2023-05-19T07:32:51.257Z,53.22
2023-05-19T07:33:54.294Z,52.72
2023-05-19T07:34:51.219Z,55.14
2023-05-19T07:35:51.211Z,54.17
2023-05-19T07:36:51.216Z,52.69
2023-05-19T07:37:51.197Z,54.24
2023-05-19T07:38:51.184Z,53.28
2023-05-19T07:39:51.152Z,53.61
2023-05-19T07:40:51.168Z,54.31
2023-05-19T07:41:51.181Z,53.78
2023-05-19T07:42:51.151Z,52.63
2023-05-19T07:43:51.162Z,54.40
2023-05-19T07:44:51.174Z,53.47
2023-05-19T07:45:51.180Z,53.25
2023-05-19T07:46:51.209Z,53.27
2023-05-19T07:47:51.197Z,53.38
2023-05-19T07:48:51.116Z,51.75
2023-05-19T07:49:51.972Z,54.89
2023-05-19T07:50:51.118Z,55.16
2023-05-19T07:51:51.090Z,55.93
2023-05-19T07:52:51.081Z,55.64
2023-05-19T07:53:51.071Z,51.71
2023-05-19T07:54:51.081Z,54.64
2023-05-19T07:55:51.062Z,54.25
2023-05-19T07:56:51.112Z,55.64
2023-05-19T07:57:51.079Z,55.00
2023-05-19T07:58:51.054Z,55.21
2023-05-19T07:59:51.043Z,54.10
2023-05-19T08:00:51.023Z,54.26
2023-05-19T08:01:51.030Z,55.47
2023-05-19T08:02:51.130Z,52.41
2023-05-19T08:03:51.129Z,56.93
2023-05-19T08:04:51.052Z,57.86
2023-05-19T08:05:50.979Z,55.77
2023-05-19T08:06:51.002Z,56.28
2023-05-19T08:07:50.997Z,58.24
2023-05-19T08:08:50.983Z,56.02
2023-05-19T08:09:50.981Z,56.55
2023-05-19T08:10:50.971Z,55.69
2023-05-19T08:11:50.944Z,56.80
2023-05-19T08:12:50.960Z,58.11
2023-05-19T08:13:51.887Z,56.87
2023-05-19T08:14:50.908Z,56.03
2023-05-19T08:15:51.003Z,57.96
2023-05-19T08:16:50.934Z,57.94
2023-05-19T08:17:51.001Z,56.15
2023-05-19T08:18:50.947Z,56.71
2023-05-19T08:19:50.888Z,56.26
2023-05-19T08:20:50.891Z,56.86
2023-05-19T08:21:50.879Z,56.35
2023-05-19T08:22:50.922Z,56.42
2023-05-19T08:23:50.886Z,53.14
2023-05-19T08:24:50.885Z,56.34
2023-05-19T08:25:50.849Z,56.81
2023-05-19T08:26:50.842Z,56.32
2023-05-19T08:27:50.907Z,57.16
2023-05-19T08:28:50.860Z,55.91
2023-05-19T08:29:50.825Z,55.31
2023-05-19T08:30:50.815Z,57.68
2023-05-19T08:31:50.917Z,57.77
2023-05-19T08:32:50.953Z,55.97
2023-05-19T08:33:50.843Z,52.40
2023-05-19T08:34:50.778Z,53.54
2023-05-19T08:35:50.796Z,53.90
2023-05-19T08:36:50.771Z,56.49
2023-05-19T08:37:50.785Z,56.66
2023-05-19T08:38:50.766Z,54.28
2023-05-19T08:39:50.784Z,53.59
2023-05-19T08:40:50.768Z,55.05
2023-05-19T08:41:50.745Z,56.89
2023-05-19T08:42:50.741Z,54.25
2023-05-19T08:43:50.759Z,57.69
2023-05-19T08:44:50.703Z,56.73
2023-05-19T08:45:50.714Z,58.40
2023-05-19T08:46:50.783Z,56.01
2023-05-19T08:47:50.725Z,56.63
2023-05-19T08:48:50.659Z,55.28
2023-05-19T08:49:50.687Z,58.96
2023-05-19T08:50:50.690Z,54.84
2023-05-19T08:51:50.671Z,54.82
2023-05-19T08:52:52.824Z,59.60
2023-05-19T08:53:50.878Z,54.04
2023-05-19T08:54:50.863Z,54.73
2023-05-19T08:55:50.852Z,55.12
2023-05-19T08:56:50.889Z,55.74
2023-05-19T08:57:50.890Z,51.70
2023-05-19T08:58:50.885Z,56.14
2023-05-19T08:59:50.911Z,53.18
2023-05-19T09:00:50.949Z,51.22
2023-05-19T09:01:50.924Z,57.14
2023-05-19T09:03:00.167Z,51.27
2023-05-19T09:03:52.011Z,51.62
2023-05-19T09:04:50.900Z,52.58
2023-05-19T09:05:50.897Z,54.63
2023-05-19T09:06:50.884Z,54.66
2023-05-19T09:07:50.884Z,54.56
2023-05-19T09:08:50.862Z,60.07
2023-05-19T09:09:50.889Z,56.09
2023-05-19T09:10:50.852Z,55.98
2023-05-19T09:11:50.884Z,60.70
2023-05-19T09:12:50.831Z,55.22
2023-05-19T09:13:50.791Z,59.68
2023-05-19T09:14:50.821Z,54.05
2023-05-19T09:15:50.796Z,54.33
2023-05-19T09:16:50.868Z,50.70
2023-05-19T09:17:50.828Z,58.09
2023-05-19T09:18:50.802Z,56.35
2023-05-19T09:19:50.821Z,55.54
2023-05-19T09:20:50.833Z,58.19
2023-05-19T09:21:50.847Z,57.34
2023-05-19T09:22:50.903Z,54.65
2023-05-19T09:23:50.927Z,55.09
2023-05-19T09:24:50.974Z,62.52
2023-05-19T09:25:51.036Z,55.37
2023-05-19T09:26:51.024Z,52.57
2023-05-19T09:27:51.049Z,56.40
2023-05-19T09:28:51.073Z,54.34
2023-05-19T09:29:51.079Z,59.23
2023-05-19T09:30:51.086Z,55.92
2023-05-19T09:31:51.210Z,55.64
2023-05-19T09:32:51.263Z,57.64
2023-05-19T09:33:51.222Z,55.26
2023-05-19T09:34:51.277Z,57.52
2023-05-19T09:35:51.320Z,56.98
2023-05-19T09:36:51.309Z,58.83
2023-05-19T09:37:51.389Z,53.24
2023-05-19T09:38:51.413Z,54.11
2023-05-19T09:39:51.465Z,57.12
2023-05-19T09:40:51.491Z,54.38
2023-05-19T09:41:51.569Z,57.22
2023-05-19T09:42:51.609Z,51.03
2023-05-19T09:43:51.674Z,55.55
2023-05-19T09:44:51.698Z,56.42
2023-05-19T09:45:51.886Z,60.92
2023-05-19T09:46:51.841Z,58.62
2023-05-19T09:47:51.896Z,59.38
2023-05-19T09:48:51.969Z,54.01
2023-05-19T09:49:51.999Z,54.14
2023-05-19T09:50:52.080Z,53.98
2023-05-19T09:51:52.158Z,55.02
2023-05-19T09:52:52.183Z,51.01
2023-05-19T09:53:52.273Z,54.80
2023-05-19T09:54:52.334Z,58.87
2023-05-19T09:55:52.374Z,58.58
2023-05-19T09:56:52.445Z,55.88
2023-05-19T09:57:52.475Z,55.99
2023-05-19T09:58:52.585Z,54.25
2023-05-19T09:59:52.615Z,57.85
2023-05-19T10:00:52.706Z,55.71
2023-05-19T10:01:52.756Z,56.87
2023-05-19T10:02:52.945Z,57.35
2023-05-19T10:03:52.863Z,58.15
2023-05-19T10:04:52.942Z,56.87
2023-05-19T10:05:52.970Z,52.73
2023-05-19T10:06:53.056Z,55.12
2023-05-19T10:07:53.134Z,55.10
2023-05-19T10:08:53.143Z,56.51
2023-05-19T10:09:53.232Z,57.97
2023-05-19T10:10:53.249Z,55.32
2023-05-19T10:11:53.326Z,52.12
2023-05-19T10:12:53.379Z,53.92
2023-05-19T10:13:53.415Z,52.43
2023-05-19T10:14:53.495Z,56.44
2023-05-19T10:16:53.672Z,53.92
2023-05-19T10:17:53.528Z,63.75
2023-05-19T10:18:53.530Z,52.63
2023-05-19T10:19:53.515Z,53.26
2023-05-19T10:20:53.492Z,56.09
2023-05-19T10:21:53.511Z,55.85
2023-05-19T10:22:53.506Z,56.26
2023-05-19T10:23:54.413Z,55.11
2023-05-19T10:24:53.471Z,57.34
2023-05-19T10:25:53.471Z,54.74
2023-05-19T10:26:53.479Z,53.14
2023-05-19T10:27:53.433Z,53.72
2023-05-19T10:28:53.447Z,54.58
2023-05-19T10:29:53.444Z,55.76
2023-05-19T10:30:53.449Z,58.43
2023-05-19T10:31:53.429Z,54.23
2023-05-19T10:32:53.418Z,54.53
2023-05-19T10:33:53.409Z,53.50
2023-05-19T10:34:53.428Z,55.93
2023-05-19T10:35:53.393Z,55.31
2023-05-19T10:36:53.414Z,58.67
2023-05-19T10:37:53.395Z,54.88
2023-05-19T10:38:53.380Z,51.43
2023-05-19T10:39:53.369Z,50.39
2023-05-19T10:40:53.354Z,55.28
2023-05-19T10:41:53.364Z,52.80
2023-05-19T10:42:53.357Z,54.26
2023-05-19T10:43:53.308Z,54.97
2023-05-19T10:44:53.370Z,53.28
2023-05-19T10:45:53.335Z,52.73
2023-05-19T10:46:54.931Z,53.49
2023-05-19T10:47:53.546Z,54.71
2023-05-19T10:48:53.574Z,53.75
2023-05-19T10:49:53.580Z,54.37
2023-05-19T10:50:53.619Z,54.62
2023-05-19T10:51:53.652Z,55.05
2023-05-19T10:52:53.706Z,56.96
2023-05-19T10:53:53.713Z,55.36
2023-05-19T10:54:53.768Z,53.18
2023-05-19T10:55:53.832Z,54.09
2023-05-19T10:56:53.880Z,55.46
2023-05-19T10:57:53.910Z,55.33
2023-05-19T10:58:53.927Z,53.88
2023-05-19T10:59:53.997Z,54.31
2023-05-19T11:00:54.021Z,54.66
2023-05-19T11:01:54.064Z,56.45
2023-05-19T11:02:54.100Z,54.56
2023-05-19T11:03:54.182Z,54.46
2023-05-19T11:04:54.190Z,55.22
2023-05-19T11:05:54.188Z,52.31
2023-05-19T11:06:54.234Z,55.78
2023-05-19T11:07:54.260Z,54.02
2023-05-19T11:08:54.301Z,54.93
2023-05-19T11:09:54.332Z,55.82
2023-05-19T11:10:54.375Z,54.58
2023-05-19T11:11:54.472Z,55.16
2023-05-19T11:12:54.412Z,52.29
2023-05-19T11:13:54.538Z,56.24
2023-05-19T11:14:54.501Z,56.03
2023-05-19T11:15:54.613Z,54.90
2023-05-19T11:16:54.589Z,54.73
2023-05-19T11:17:54.694Z,53.58
2023-05-19T11:18:54.672Z,54.80
2023-05-19T11:19:54.787Z,53.12
2023-05-19T11:20:54.739Z,54.08
2023-05-19T11:21:54.720Z,54.23
2023-05-19T11:22:54.811Z,53.22
2023-05-19T11:23:54.866Z,55.85
2023-05-19T11:24:54.842Z,54.61
2023-05-19T11:25:54.873Z,55.76
2023-05-19T11:26:54.887Z,52.75
2023-05-19T11:27:54.921Z,53.76
2023-05-19T11:28:54.956Z,55.54
2023-05-19T11:29:54.983Z,55.25
2023-05-19T11:30:55.043Z,53.54
2023-05-19T11:31:55.116Z,55.24
2023-05-19T11:32:55.137Z,54.68
2023-05-19T11:33:55.101Z,53.46
2023-05-19T11:34:55.113Z,53.13
2023-05-19T11:35:55.152Z,53.77
2023-05-19T11:36:55.166Z,54.70
2023-05-19T11:37:55.182Z,54.48
2023-05-19T11:38:55.199Z,54.36
2023-05-19T11:39:55.211Z,54.34
2023-05-19T11:40:55.266Z,56.13
2023-05-19T11:41:55.298Z,54.15
2023-05-19T11:42:55.305Z,55.64
2023-05-19T11:43:55.316Z,53.26
2023-05-19T11:44:55.366Z,54.54
2023-05-19T11:45:55.432Z,53.29
2023-05-19T11:46:55.534Z,54.07
2023-05-19T11:48:55.372Z,55.40
2023-05-19T11:49:55.409Z,55.49
2023-05-19T11:50:55.382Z,54.65
2023-05-19T11:51:55.355Z,56.14
2023-05-19T11:52:55.375Z,54.35
2023-05-19T11:53:55.355Z,53.03
2023-05-19T11:54:55.343Z,56.05
2023-05-19T11:55:55.316Z,57.45
2023-05-19T11:56:55.326Z,54.57
2023-05-19T11:58:03.022Z,53.68
2023-05-19T11:58:56.319Z,53.92
2023-05-19T11:59:55.312Z,53.94
2023-05-19T12:00:55.302Z,55.12
2023-05-19T12:01:55.284Z,55.31
2023-05-19T12:02:55.378Z,55.76
2023-05-19T12:03:55.444Z,53.19
2023-05-19T12:04:55.316Z,55.58
2023-05-19T12:05:55.304Z,56.34
2023-05-19T12:06:55.288Z,55.37
2023-05-19T12:07:55.278Z,56.14
2023-05-19T12:08:55.248Z,54.39
2023-05-19T12:09:55.249Z,54.64
2023-05-19T12:10:55.251Z,57.26
2023-05-19T12:11:55.212Z,56.47
2023-05-19T12:12:55.210Z,57.05
2023-05-19T12:13:55.223Z,55.84
2023-05-19T12:14:55.200Z,57.28
2023-05-19T12:15:55.257Z,57.05
2023-05-19T12:16:55.223Z,55.21
2023-05-19T12:17:55.187Z,56.00
2023-05-19T12:18:55.173Z,55.27
2023-05-19T12:19:55.178Z,54.98
2023-05-19T12:20:55.182Z,55.17
2023-05-19T12:21:55.202Z,55.07
2023-05-19T12:22:55.226Z,55.52
2023-05-19T12:23:55.198Z,55.14
2023-05-19T12:24:55.240Z,55.97
2023-05-19T12:25:55.240Z,54.09
2023-05-19T12:26:56.249Z,54.32
2023-05-19T12:27:56.066Z,54.69
2023-05-19T12:28:55.233Z,55.34
2023-05-19T12:29:55.206Z,54.63
2023-05-19T12:30:55.226Z,55.44
2023-05-19T12:31:55.298Z,56.12
2023-05-19T12:32:55.247Z,56.21
2023-05-19T12:33:55.190Z,56.84
2023-05-19T12:34:55.196Z,55.02
2023-05-19T12:35:55.182Z,57.32
2023-05-19T12:36:55.188Z,55.80
2023-05-19T12:37:55.161Z,56.14
2023-05-19T12:38:55.176Z,55.54
2023-05-19T12:39:55.144Z,56.31
2023-05-19T12:40:55.143Z,56.07
2023-05-19T12:41:55.143Z,55.73
2023-05-19T12:42:55.134Z,59.24
2023-05-19T12:43:55.117Z,57.81
2023-05-19T12:44:55.102Z,55.14
2023-05-19T12:45:55.155Z,57.21
2023-05-19T12:46:55.133Z,57.85
2023-05-19T12:47:55.217Z,59.43
2023-05-19T12:48:55.133Z,56.13
2023-05-19T12:49:55.152Z,57.38
2023-05-19T12:50:55.245Z,58.51
2023-05-19T12:51:55.198Z,58.62
2023-05-19T12:52:55.241Z,58.34
2023-05-19T12:53:55.202Z,57.01
2023-05-19T12:54:55.252Z,55.27